sensor_id;sensor_type;location;lat;lon;timestamp;P1;durP1;ratioP1;P2;durP2;ratioP2
7941;SDS011;4016;50.758;7.150;2022-11-15T00:03:13;7.33;;;6.23;;
7941;SDS011;4016;50.758;7.150;2022-11-15T00:08:15;7.77;;;6.00;;
7941;SDS011;4016;50.758;7.150;2022-11-15T00:13:15;8.63;;;5.93;;
7941;SDS011;4016;50.758;7.150;2022-11-15T00:18:16;7.10;;;5.83;;
7941;SDS011;4016;50.758;7.150;2022-11-15T00:23:17;9.83;;;6.13;;
7941;SDS011;4016;50.758;7.150;2022-11-15T00:28:17;7.30;;;5.70;;
7941;SDS011;4016;50.758;7.150;2022-11-15T00:33:17;7.07;;;6.27;;
7941;SDS011;4016;50.758;7.150;2022-11-15T00:38:18;6.90;;;5.40;;
7941;SDS011;4016;50.758;7.150;2022-11-15T00:43:18;6.13;;;5.53;;
7941;SDS011;4016;50.758;7.150;2022-11-15T00:48:19;6.93;;;5.93;;
7941;SDS011;4016;50.758;7.150;2022-11-15T00:53:19;8.17;;;6.20;;
7941;SDS011;4016;50.758;7.150;2022-11-15T00:58:19;8.63;;;6.40;;
7941;SDS011;4016;50.758;7.150;2022-11-15T01:03:20;8.47;;;6.07;;
7941;SDS011;4016;50.758;7.150;2022-11-15T01:08:20;8.40;;;6.67;;
7941;SDS011;4016;50.758;7.150;2022-11-15T01:13:21;8.23;;;5.73;;
7941;SDS011;4016;50.758;7.150;2022-11-15T01:18:21;6.33;;;5.77;;
7941;SDS011;4016;50.758;7.150;2022-11-15T01:23:21;7.87;;;6.27;;
7941;SDS011;4016;50.758;7.150;2022-11-15T01:28:22;7.23;;;5.63;;
7941;SDS011;4016;50.758;7.150;2022-11-15T01:33:22;7.20;;;4.93;;
7941;SDS011;4016;50.758;7.150;2022-11-15T01:38:23;6.87;;;5.43;;
7941;SDS011;4016;50.758;7.150;2022-11-15T01:43:24;6.17;;;5.20;;
7941;SDS011;4016;50.758;7.150;2022-11-15T01:48:32;5.03;;;4.47;;
7941;SDS011;4016;50.758;7.150;2022-11-15T01:53:33;5.40;;;4.40;;
7941;SDS011;4016;50.758;7.150;2022-11-15T01:58:38;8.33;;;5.60;;
7941;SDS011;4016;50.758;7.150;2022-11-15T02:03:46;6.17;;;4.53;;
7941;SDS011;4016;50.758;7.150;2022-11-15T02:08:52;5.87;;;4.60;;
7941;SDS011;4016;50.758;7.150;2022-11-15T02:13:53;5.90;;;4.70;;
7941;SDS011;4016;50.758;7.150;2022-11-15T02:46:02;6.80;;;4.30;;
7941;SDS011;4016;50.758;7.150;2022-11-15T02:51:09;7.90;;;5.63;;
7941;SDS011;4016;50.758;7.150;2022-11-15T02:56:10;5.10;;;4.47;;
7941;SDS011;4016;50.758;7.150;2022-11-15T03:06:28;6.17;;;4.80;;
7941;SDS011;4016;50.758;7.150;2022-11-15T03:11:38;5.37;;;4.50;;
7941;SDS011;4016;50.758;7.150;2022-11-15T03:16:46;6.43;;;5.47;;
7941;SDS011;4016;50.758;7.150;2022-11-15T03:22:17;6.23;;;4.97;;
7941;SDS011;4016;50.758;7.150;2022-11-15T03:27:21;5.63;;;5.03;;
7941;SDS011;4016;50.758;7.150;2022-11-15T03:32:26;6.30;;;5.50;;
7941;SDS011;4016;50.758;7.150;2022-11-15T03:37:52;5.30;;;4.80;;
7941;SDS011;4016;50.758;7.150;2022-11-15T03:48:10;5.20;;;4.70;;
7941;SDS011;4016;50.758;7.150;2022-11-15T03:53:15;5.60;;;4.97;;
7941;SDS011;4016;50.758;7.150;2022-11-15T03:58:17;5.73;;;5.10;;
7941;SDS011;4016;50.758;7.150;2022-11-15T04:03:18;5.53;;;4.70;;
7941;SDS011;4016;50.758;7.150;2022-11-15T04:08:18;5.47;;;4.63;;
7941;SDS011;4016;50.758;7.150;2022-11-15T04:13:18;5.93;;;4.70;;
7941;SDS011;4016;50.758;7.150;2022-11-15T04:18:19;5.23;;;4.40;;
7941;SDS011;4016;50.758;7.150;2022-11-15T04:23:20;4.83;;;4.13;;
7941;SDS011;4016;50.758;7.150;2022-11-15T04:28:40;5.20;;;4.33;;
7941;SDS011;4016;50.758;7.150;2022-11-15T04:33:59;5.57;;;4.00;;
7941;SDS011;4016;50.758;7.150;2022-11-15T04:39:00;5.03;;;4.03;;
7941;SDS011;4016;50.758;7.150;2022-11-15T04:44:00;5.10;;;4.17;;
7941;SDS011;4016;50.758;7.150;2022-11-15T04:49:00;4.97;;;4.47;;
7941;SDS011;4016;50.758;7.150;2022-11-15T04:54:01;4.80;;;4.30;;
7941;SDS011;4016;50.758;7.150;2022-11-15T04:59:01;4.43;;;4.03;;
7941;SDS011;4016;50.758;7.150;2022-11-15T05:04:02;4.57;;;4.10;;
7941;SDS011;4016;50.758;7.150;2022-11-15T05:09:20;3.77;;;3.47;;
7941;SDS011;4016;50.758;7.150;2022-11-15T05:14:21;3.60;;;3.27;;
7941;SDS011;4016;50.758;7.150;2022-11-15T05:19:22;3.87;;;3.47;;
7941;SDS011;4016;50.758;7.150;2022-11-15T05:24:22;4.17;;;3.60;;
7941;SDS011;4016;50.758;7.150;2022-11-15T05:29:23;3.60;;;3.27;;
7941;SDS011;4016;50.758;7.150;2022-11-15T05:34:23;3.43;;;2.90;;
7941;SDS011;4016;50.758;7.150;2022-11-15T05:39:25;3.50;;;3.20;;
7941;SDS011;4016;50.758;7.150;2022-11-15T05:44:26;3.90;;;3.47;;
7941;SDS011;4016;50.758;7.150;2022-11-15T05:49:28;3.90;;;3.00;;
7941;SDS011;4016;50.758;7.150;2022-11-15T05:54:31;3.63;;;3.20;;
7941;SDS011;4016;50.758;7.150;2022-11-15T05:59:33;2.90;;;2.70;;
7941;SDS011;4016;50.758;7.150;2022-11-15T06:04:35;3.20;;;2.90;;
7941;SDS011;4016;50.758;7.150;2022-11-15T06:09:35;3.37;;;3.07;;
7941;SDS011;4016;50.758;7.150;2022-11-15T06:14:35;3.03;;;2.77;;
7941;SDS011;4016;50.758;7.150;2022-11-15T06:19:36;3.60;;;3.30;;
7941;SDS011;4016;50.758;7.150;2022-11-15T06:24:36;4.67;;;3.20;;
7941;SDS011;4016;50.758;7.150;2022-11-15T06:29:36;4.63;;;3.00;;
7941;SDS011;4016;50.758;7.150;2022-11-15T06:34:37;3.63;;;3.30;;
7941;SDS011;4016;50.758;7.150;2022-11-15T06:39:37;6.07;;;4.50;;
7941;SDS011;4016;50.758;7.150;2022-11-15T06:44:37;3.20;;;2.90;;
7941;SDS011;4016;50.758;7.150;2022-11-15T06:49:38;3.20;;;2.90;;
7941;SDS011;4016;50.758;7.150;2022-11-15T06:54:38;4.00;;;2.70;;
7941;SDS011;4016;50.758;7.150;2022-11-15T06:59:38;3.30;;;2.90;;
7941;SDS011;4016;50.758;7.150;2022-11-15T07:04:39;4.93;;;3.23;;
7941;SDS011;4016;50.758;7.150;2022-11-15T07:09:39;3.27;;;2.83;;
7941;SDS011;4016;50.758;7.150;2022-11-15T07:14:40;3.83;;;3.00;;
7941;SDS011;4016;50.758;7.150;2022-11-15T07:19:40;3.33;;;3.03;;
7941;SDS011;4016;50.758;7.150;2022-11-15T07:24:41;3.20;;;2.90;;
7941;SDS011;4016;50.758;7.150;2022-11-15T07:29:41;2.93;;;2.60;;
7941;SDS011;4016;50.758;7.150;2022-11-15T07:34:41;2.50;;;2.30;;
7941;SDS011;4016;50.758;7.150;2022-11-15T07:39:42;2.83;;;2.40;;
7941;SDS011;4016;50.758;7.150;2022-11-15T07:44:43;3.33;;;2.53;;
7941;SDS011;4016;50.758;7.150;2022-11-15T07:49:43;3.10;;;2.67;;
7941;SDS011;4016;50.758;7.150;2022-11-15T07:54:43;2.23;;;2.03;;
7941;SDS011;4016;50.758;7.150;2022-11-15T07:59:44;2.50;;;2.30;;
7941;SDS011;4016;50.758;7.150;2022-11-15T08:04:44;2.83;;;2.43;;
7941;SDS011;4016;50.758;7.150;2022-11-15T08:09:45;2.87;;;2.27;;
7941;SDS011;4016;50.758;7.150;2022-11-15T08:14:45;2.70;;;2.50;;
7941;SDS011;4016;50.758;7.150;2022-11-15T08:19:45;3.00;;;2.70;;
7941;SDS011;4016;50.758;7.150;2022-11-15T08:24:46;3.03;;;2.73;;
7941;SDS011;4016;50.758;7.150;2022-11-15T08:29:47;3.20;;;2.63;;
7941;SDS011;4016;50.758;7.150;2022-11-15T08:34:48;2.73;;;2.53;;
7941;SDS011;4016;50.758;7.150;2022-11-15T08:39:48;2.70;;;2.50;;
7941;SDS011;4016;50.758;7.150;2022-11-15T08:44:49;3.33;;;2.90;;
7941;SDS011;4016;50.758;7.150;2022-11-15T08:49:49;2.90;;;2.27;;
7941;SDS011;4016;50.758;7.150;2022-11-15T08:54:50;3.10;;;2.80;;
7941;SDS011;4016;50.758;7.150;2022-11-15T08:59:50;2.57;;;2.37;;
7941;SDS011;4016;50.758;7.150;2022-11-15T09:04:50;3.27;;;2.50;;
7941;SDS011;4016;50.758;7.150;2022-11-15T09:09:51;2.67;;;2.47;;
7941;SDS011;4016;50.758;7.150;2022-11-15T09:14:51;2.37;;;2.17;;
7941;SDS011;4016;50.758;7.150;2022-11-15T09:19:51;2.33;;;2.13;;
7941;SDS011;4016;50.758;7.150;2022-11-15T09:24:52;2.30;;;2.10;;
7941;SDS011;4016;50.758;7.150;2022-11-15T09:29:52;3.30;;;2.60;;
7941;SDS011;4016;50.758;7.150;2022-11-15T09:34:52;3.10;;;1.93;;
7941;SDS011;4016;50.758;7.150;2022-11-15T09:39:53;2.23;;;2.03;;
7941;SDS011;4016;50.758;7.150;2022-11-15T09:45:04;2.50;;;1.73;;
7941;SDS011;4016;50.758;7.150;2022-11-15T09:50:26;2.73;;;2.03;;
7941;SDS011;4016;50.758;7.150;2022-11-15T09:55:41;1.80;;;1.67;;
7941;SDS011;4016;50.758;7.150;2022-11-15T10:00:51;2.20;;;2.00;;
7941;SDS011;4016;50.758;7.150;2022-11-15T10:05:54;0.90;;;0.90;;
7941;SDS011;4016;50.758;7.150;2022-11-15T10:11:05;2.80;;;1.80;;
7941;SDS011;4016;50.758;7.150;2022-11-15T10:26:54;1.97;;;1.30;;
7941;SDS011;4016;50.758;7.150;2022-11-15T10:31:56;1.17;;;1.07;;
7941;SDS011;4016;50.758;7.150;2022-11-15T10:36:57;1.50;;;1.40;;
7941;SDS011;4016;50.758;7.150;2022-11-15T10:42:14;3.53;;;1.77;;
7941;SDS011;4016;50.758;7.150;2022-11-15T10:47:31;2.77;;;1.30;;
7941;SDS011;4016;50.758;7.150;2022-11-15T10:52:33;1.47;;;1.37;;
7941;SDS011;4016;50.758;7.150;2022-11-15T10:57:36;3.47;;;1.73;;
7941;SDS011;4016;50.758;7.150;2022-11-15T11:02:39;1.80;;;1.20;;
7941;SDS011;4016;50.758;7.150;2022-11-15T11:07:45;1.70;;;0.83;;
7941;SDS011;4016;50.758;7.150;2022-11-15T11:13:12;2.57;;;1.30;;
7941;SDS011;4016;50.758;7.150;2022-11-15T11:18:17;2.60;;;1.50;;
7941;SDS011;4016;50.758;7.150;2022-11-15T11:34:33;1.43;;;1.10;;
7941;SDS011;4016;50.758;7.150;2022-11-15T11:50:42;1.83;;;1.30;;
7941;SDS011;4016;50.758;7.150;2022-11-15T11:55:45;1.60;;;1.50;;
7941;SDS011;4016;50.758;7.150;2022-11-15T12:00:51;1.67;;;1.57;;
7941;SDS011;4016;50.758;7.150;2022-11-15T12:05:59;2.37;;;1.90;;
7941;SDS011;4016;50.758;7.150;2022-11-15T12:11:19;1.77;;;1.67;;
7941;SDS011;4016;50.758;7.150;2022-11-15T12:16:28;3.50;;;2.03;;
7941;SDS011;4016;50.758;7.150;2022-11-15T12:26:59;2.30;;;2.10;;
7941;SDS011;4016;50.758;7.150;2022-11-15T12:31:59;2.80;;;2.50;;
7941;SDS011;4016;50.758;7.150;2022-11-15T12:37:02;5.10;;;3.00;;
7941;SDS011;4016;50.758;7.150;2022-11-15T12:42:57;2.53;;;2.27;;
7941;SDS011;4016;50.758;7.150;2022-11-15T12:53:43;3.00;;;2.50;;
7941;SDS011;4016;50.758;7.150;2022-11-15T12:58:57;2.70;;;2.50;;
7941;SDS011;4016;50.758;7.150;2022-11-15T13:19:43;3.70;;;2.80;;
7941;SDS011;4016;50.758;7.150;2022-11-15T13:24:46;3.07;;;2.50;;
7941;SDS011;4016;50.758;7.150;2022-11-15T13:29:46;2.73;;;2.53;;
7941;SDS011;4016;50.758;7.150;2022-11-15T13:34:47;2.70;;;2.40;;
7941;SDS011;4016;50.758;7.150;2022-11-15T13:39:52;4.03;;;2.77;;
7941;SDS011;4016;50.758;7.150;2022-11-15T13:44:59;2.63;;;2.40;;
7941;SDS011;4016;50.758;7.150;2022-11-15T13:50:01;1.90;;;1.80;;
7941;SDS011;4016;50.758;7.150;2022-11-15T13:55:13;2.43;;;2.30;;
7941;SDS011;4016;50.758;7.150;2022-11-15T14:01:00;2.63;;;2.43;;
7941;SDS011;4016;50.758;7.150;2022-11-15T14:05:43;2.73;;;2.53;;
7941;SDS011;4016;50.758;7.150;2022-11-15T14:10:44;2.67;;;2.40;;
7941;SDS011;4016;50.758;7.150;2022-11-15T14:15:44;2.63;;;2.43;;
7941;SDS011;4016;50.758;7.150;2022-11-15T14:20:45;2.37;;;2.27;;
7941;SDS011;4016;50.758;7.150;2022-11-15T14:25:52;2.63;;;2.20;;
7941;SDS011;4016;50.758;7.150;2022-11-15T14:30:55;2.47;;;2.27;;
7941;SDS011;4016;50.758;7.150;2022-11-15T14:35:58;2.70;;;1.97;;
7941;SDS011;4016;50.758;7.150;2022-11-15T14:41:03;2.10;;;1.90;;
7941;SDS011;4016;50.758;7.150;2022-11-15T14:46:03;2.10;;;1.97;;
7941;SDS011;4016;50.758;7.150;2022-11-15T14:51:09;2.93;;;2.30;;
7941;SDS011;4016;50.758;7.150;2022-11-15T14:56:11;2.07;;;1.97;;
7941;SDS011;4016;50.758;7.150;2022-11-15T15:01:25;1.87;;;1.77;;
7941;SDS011;4016;50.758;7.150;2022-11-15T15:06:26;2.37;;;2.17;;
7941;SDS011;4016;50.758;7.150;2022-11-15T15:11:28;2.40;;;2.13;;
7941;SDS011;4016;50.758;7.150;2022-11-15T15:16:30;2.63;;;2.20;;
7941;SDS011;4016;50.758;7.150;2022-11-15T15:21:30;2.00;;;1.90;;
7941;SDS011;4016;50.758;7.150;2022-11-15T15:26:31;2.70;;;2.40;;
7941;SDS011;4016;50.758;7.150;2022-11-15T15:31:36;3.13;;;2.30;;
7941;SDS011;4016;50.758;7.150;2022-11-15T15:36:36;3.80;;;2.43;;
7941;SDS011;4016;50.758;7.150;2022-11-15T15:41:36;2.43;;;2.23;;
7941;SDS011;4016;50.758;7.150;2022-11-15T15:46:37;2.40;;;2.17;;
7941;SDS011;4016;50.758;7.150;2022-11-15T15:51:37;2.83;;;2.53;;
7941;SDS011;4016;50.758;7.150;2022-11-15T15:56:38;2.10;;;2.00;;
7941;SDS011;4016;50.758;7.150;2022-11-15T16:01:38;2.40;;;2.20;;
7941;SDS011;4016;50.758;7.150;2022-11-15T16:06:39;3.93;;;2.37;;
7941;SDS011;4016;50.758;7.150;2022-11-15T16:11:44;3.00;;;2.70;;
7941;SDS011;4016;50.758;7.150;2022-11-15T16:16:45;2.10;;;1.90;;
7941;SDS011;4016;50.758;7.150;2022-11-15T16:21:46;2.50;;;2.30;;
7941;SDS011;4016;50.758;7.150;2022-11-15T16:26:47;2.77;;;2.23;;
7941;SDS011;4016;50.758;7.150;2022-11-15T16:31:48;2.73;;;2.53;;
7941;SDS011;4016;50.758;7.150;2022-11-15T16:36:48;2.50;;;2.30;;
7941;SDS011;4016;50.758;7.150;2022-11-15T16:41:49;2.17;;;2.00;;
7941;SDS011;4016;50.758;7.150;2022-11-15T16:46:49;2.90;;;2.63;;
7941;SDS011;4016;50.758;7.150;2022-11-15T16:51:53;2.77;;;2.57;;
7941;SDS011;4016;50.758;7.150;2022-11-15T16:56:53;3.63;;;2.73;;
7941;SDS011;4016;50.758;7.150;2022-11-15T17:01:54;4.27;;;2.70;;
7941;SDS011;4016;50.758;7.150;2022-11-15T17:06:54;2.03;;;1.90;;
7941;SDS011;4016;50.758;7.150;2022-11-15T17:11:55;2.63;;;2.43;;
7941;SDS011;4016;50.758;7.150;2022-11-15T17:16:55;2.63;;;2.43;;
7941;SDS011;4016;50.758;7.150;2022-11-15T17:21:56;3.37;;;2.63;;
7941;SDS011;4016;50.758;7.150;2022-11-15T17:26:56;3.27;;;2.97;;
7941;SDS011;4016;50.758;7.150;2022-11-15T17:31:57;3.57;;;2.87;;
7941;SDS011;4016;50.758;7.150;2022-11-15T17:36:57;2.90;;;2.70;;
7941;SDS011;4016;50.758;7.150;2022-11-15T17:41:58;3.03;;;2.60;;
7941;SDS011;4016;50.758;7.150;2022-11-15T17:46:58;3.73;;;2.80;;
7941;SDS011;4016;50.758;7.150;2022-11-15T17:51:58;2.73;;;2.53;;
7941;SDS011;4016;50.758;7.150;2022-11-15T17:56:59;3.90;;;3.20;;
7941;SDS011;4016;50.758;7.150;2022-11-15T18:01:59;3.57;;;3.27;;
7941;SDS011;4016;50.758;7.150;2022-11-15T18:06:59;3.43;;;3.10;;
7941;SDS011;4016;50.758;7.150;2022-11-15T18:12:00;3.10;;;2.80;;
7941;SDS011;4016;50.758;7.150;2022-11-15T18:17:00;3.60;;;2.93;;
7941;SDS011;4016;50.758;7.150;2022-11-15T18:22:01;3.33;;;3.03;;
7941;SDS011;4016;50.758;7.150;2022-11-15T18:27:04;3.73;;;3.00;;
7941;SDS011;4016;50.758;7.150;2022-11-15T18:32:05;3.10;;;2.80;;
7941;SDS011;4016;50.758;7.150;2022-11-15T18:37:11;4.63;;;3.60;;
7941;SDS011;4016;50.758;7.150;2022-11-15T18:42:11;3.60;;;3.30;;
7941;SDS011;4016;50.758;7.150;2022-11-15T18:47:12;4.13;;;3.77;;
7941;SDS011;4016;50.758;7.150;2022-11-15T18:52:12;3.80;;;3.50;;
7941;SDS011;4016;50.758;7.150;2022-11-15T18:57:13;5.10;;;4.27;;
7941;SDS011;4016;50.758;7.150;2022-11-15T19:02:13;5.37;;;4.60;;
7941;SDS011;4016;50.758;7.150;2022-11-15T19:07:13;9.33;;;6.47;;
7941;SDS011;4016;50.758;7.150;2022-11-15T19:12:14;7.77;;;6.67;;
7941;SDS011;4016;50.758;7.150;2022-11-15T19:17:14;6.03;;;4.43;;
7941;SDS011;4016;50.758;7.150;2022-11-15T19:22:15;6.00;;;4.07;;
7941;SDS011;4016;50.758;7.150;2022-11-15T19:27:15;4.30;;;3.90;;
7941;SDS011;4016;50.758;7.150;2022-11-15T19:32:15;5.77;;;4.63;;
7941;SDS011;4016;50.758;7.150;2022-11-15T19:37:16;4.67;;;4.17;;
7941;SDS011;4016;50.758;7.150;2022-11-15T19:42:16;5.20;;;3.80;;
7941;SDS011;4016;50.758;7.150;2022-11-15T19:47:17;7.47;;;3.80;;
7941;SDS011;4016;50.758;7.150;2022-11-15T19:52:17;5.47;;;3.90;;
7941;SDS011;4016;50.758;7.150;2022-11-15T19:57:19;5.03;;;3.87;;
7941;SDS011;4016;50.758;7.150;2022-11-15T20:02:20;6.03;;;4.20;;
7941;SDS011;4016;50.758;7.150;2022-11-15T20:07:20;6.40;;;4.20;;
7941;SDS011;4016;50.758;7.150;2022-11-15T20:12:20;4.33;;;3.93;;
7941;SDS011;4016;50.758;7.150;2022-11-15T20:17:21;4.40;;;4.00;;
7941;SDS011;4016;50.758;7.150;2022-11-15T20:22:21;4.70;;;4.30;;
7941;SDS011;4016;50.758;7.150;2022-11-15T20:27:22;5.87;;;4.20;;
7941;SDS011;4016;50.758;7.150;2022-11-15T20:32:22;5.37;;;4.57;;
7941;SDS011;4016;50.758;7.150;2022-11-15T20:37:23;5.97;;;4.20;;
7941;SDS011;4016;50.758;7.150;2022-11-15T20:42:23;5.80;;;4.70;;
7941;SDS011;4016;50.758;7.150;2022-11-15T20:47:24;6.17;;;4.10;;
7941;SDS011;4016;50.758;7.150;2022-11-15T20:52:24;4.73;;;3.73;;
7941;SDS011;4016;50.758;7.150;2022-11-15T20:57:25;5.30;;;4.30;;
7941;SDS011;4016;50.758;7.150;2022-11-15T21:02:25;5.23;;;4.10;;
7941;SDS011;4016;50.758;7.150;2022-11-15T21:07:27;4.57;;;4.03;;
7941;SDS011;4016;50.758;7.150;2022-11-15T21:12:28;4.17;;;3.67;;
7941;SDS011;4016;50.758;7.150;2022-11-15T21:17:28;4.67;;;3.60;;
7941;SDS011;4016;50.758;7.150;2022-11-15T21:22:28;4.23;;;3.83;;
7941;SDS011;4016;50.758;7.150;2022-11-15T21:27:29;4.97;;;4.30;;
7941;SDS011;4016;50.758;7.150;2022-11-15T21:32:29;4.20;;;3.80;;
7941;SDS011;4016;50.758;7.150;2022-11-15T21:37:30;4.20;;;3.73;;
7941;SDS011;4016;50.758;7.150;2022-11-15T21:42:30;3.87;;;3.43;;
7941;SDS011;4016;50.758;7.150;2022-11-15T21:47:30;3.93;;;3.57;;
7941;SDS011;4016;50.758;7.150;2022-11-15T21:52:31;4.10;;;3.70;;
7941;SDS011;4016;50.758;7.150;2022-11-15T21:57:34;5.93;;;4.17;;
7941;SDS011;4016;50.758;7.150;2022-11-15T22:02:34;3.90;;;3.50;;
7941;SDS011;4016;50.758;7.150;2022-11-15T22:07:35;4.07;;;3.67;;
7941;SDS011;4016;50.758;7.150;2022-11-15T22:12:35;3.77;;;3.43;;
7941;SDS011;4016;50.758;7.150;2022-11-15T22:17:36;5.43;;;3.80;;
7941;SDS011;4016;50.758;7.150;2022-11-15T22:22:56;4.43;;;3.83;;
7941;SDS011;4016;50.758;7.150;2022-11-15T22:27:57;3.40;;;3.10;;
7941;SDS011;4016;50.758;7.150;2022-11-15T22:32:57;3.80;;;3.50;;
7941;SDS011;4016;50.758;7.150;2022-11-15T22:37:57;5.23;;;3.40;;
7941;SDS011;4016;50.758;7.150;2022-11-15T22:42:58;3.93;;;3.47;;
7941;SDS011;4016;50.758;7.150;2022-11-15T22:47:58;4.47;;;3.50;;
7941;SDS011;4016;50.758;7.150;2022-11-15T22:52:59;7.20;;;3.37;;
7941;SDS011;4016;50.758;7.150;2022-11-15T22:57:59;4.63;;;3.63;;
7941;SDS011;4016;50.758;7.150;2022-11-15T23:02:59;6.27;;;3.73;;
7941;SDS011;4016;50.758;7.150;2022-11-15T23:08:00;4.67;;;3.80;;
7941;SDS011;4016;50.758;7.150;2022-11-15T23:13:04;3.93;;;3.43;;
7941;SDS011;4016;50.758;7.150;2022-11-15T23:18:17;3.90;;;3.60;;
7941;SDS011;4016;50.758;7.150;2022-11-15T23:23:18;5.27;;;3.90;;
7941;SDS011;4016;50.758;7.150;2022-11-15T23:28:18;4.47;;;3.47;;
7941;SDS011;4016;50.758;7.150;2022-11-15T23:33:19;4.33;;;3.67;;
7941;SDS011;4016;50.758;7.150;2022-11-15T23:38:37;5.03;;;3.50;;
7941;SDS011;4016;50.758;7.150;2022-11-15T23:43:38;4.00;;;3.60;;
7941;SDS011;4016;50.758;7.150;2022-11-15T23:48:38;5.27;;;3.10;;
7941;SDS011;4016;50.758;7.150;2022-11-15T23:53:39;3.30;;;3.00;;
7941;SDS011;4016;50.758;7.150;2022-11-15T23:58:39;3.63;;;3.33;;
